Погода Зугалайна неделю

Забайкальский край, Россия

14 - 20 июля
  • 14июля
    Сегодня
    +14°
    +29°
    Небольшая облачность
    ВремяПогодаТемператураВлажностьДавлениеВетер, м/сВероятность осадков
    00:00Облачно с прояснениями+19°C85 %699 мм1.3 м/с25 %
    03:00Небольшая облачность+17°C85 %699 мм2.3 м/с36 %
    06:00Облачно с прояснениями+16°C81 %699 мм2.3 м/с18 %
    09:00Облачно с прояснениями+18°C62 %700 мм3.5 м/с13 %
    12:00Небольшая облачность+24°C45 %701 мм4.1 м/с5 %
    15:00Небольшая облачность+28°C35 %700 мм5.6 м/с2 %
    18:00Ясно и безоблачно+28°C34 %700 мм5.0 м/с2 %
    21:00Ясно и безоблачно+24°C41 %700 мм2.6 м/с2 %
  • 15июля
    Понедельник
    +13°
    +27°
    Облачно с прояснениями
    ВремяПогодаТемператураВлажностьДавлениеВетер, м/сВероятность осадков
    00:00Облачно с прояснениями+19°C49 %700 мм2.9 м/с2 %
    03:00Облачно с прояснениями+17°C52 %700 мм2.5 м/с2 %
    06:00Облачно с прояснениями+15°C57 %700 мм2.3 м/с2 %
    09:00Облачно с прояснениями+19°C44 %701 мм3.2 м/с2 %
    12:00Облачно с прояснениями+24°C33 %701 мм2.7 м/с4 %
    15:00Облачно с прояснениями+26°C29 %700 мм2.0 м/с7 %
    18:00Облачно с прояснениями+27°C30 %700 мм1.5 м/с9 %
    21:00Облачно с прояснениями+22°C46 %699 мм1.1 м/с8 %
  • 16июля
    Вторник
    +17°
    +30°
    Облачно с прояснениями
    ВремяПогодаТемператураВлажностьДавлениеВетер, м/сВероятность осадков
    00:00Облачно с прояснениями+18°C59 %698 мм0.4 м/с6 %
    03:00Облачно с прояснениями+15°C76 %697 мм0.8 м/с4 %
    06:00Облачно с прояснениями+13°C78 %696 мм0.8 м/с3 %
    09:00Облачно с прояснениями+18°C60 %697 мм1.0 м/с4 %
    12:00Облачно с прояснениями+27°C35 %698 мм2.6 м/с3 %
    15:00Облачно с прояснениями+29°C26 %697 мм4.4 м/с2 %
    18:00Облачно с прояснениями+29°C26 %697 мм3.5 м/с3 %
    21:00Облачно с прояснениями+25°C36 %696 мм2.2 м/с3 %
  • 17июля
    Среда
    +16°
    +27°
    Небольшая облачность
    ВремяПогодаТемператураВлажностьДавлениеВетер, м/сВероятность осадков
    00:00Облачно с прояснениями+21°C46 %695 мм2.6 м/с3 %
    03:00Облачно с прояснениями+19°C51 %695 мм3.0 м/с3 %
    06:00Облачно с прояснениями+18°C54 %695 мм3.6 м/с4 %
    09:00Облачно с прояснениями+21°C43 %695 мм5.2 м/с6 %
    12:00Облачно с прояснениями+26°C34 %695 мм6.7 м/с5 %
    15:00Небольшая облачность+26°C30 %694 мм7.3 м/с25 %
    18:00Небольшая облачность+26°C34 %694 мм6.6 м/с42 %
    21:00Практически безоблачно+20°C69 %694 мм2.9 м/с25 %
  • 18июля
    Четверг
    +14°
    +28°
    Небольшая облачность
    ВремяПогодаТемператураВлажностьДавлениеВетер, м/сВероятность осадков
    00:00Облачно с прояснениями+18°C63 %693 мм3.9 м/с5 %
    03:00Облачно с прояснениями+18°C61 %693 мм4.7 м/с6 %
    06:00Облачно с прояснениями+17°C63 %692 мм5.2 м/с9 %
    09:00Облачно с прояснениями+19°C52 %693 мм6.2 м/с14 %
    12:00Практически безоблачно+24°C40 %693 мм6.8 м/с25 %
    15:00Небольшая облачность+25°C32 %692 мм6.7 м/с35 %
    18:00Пасмурно, сплошная облачность+28°C32 %692 мм6.2 м/с39 %
    21:00Практически безоблачно+24°C48 %691 мм1.8 м/с19 %
  • 19июля
    Пятница
    +15°
    +32°
    Ясно и безоблачно
    ВремяПогодаТемператураВлажностьДавлениеВетер, м/сВероятность осадков
    00:00Ясно и безоблачно+19°C56 %691 мм2.7 м/с14 %
    03:00Ясно и безоблачно+17°C65 %691 мм2.1 м/с14 %
    06:00Ясно и безоблачно+15°C72 %691 мм2.3 м/с8 %
    09:00Ясно и безоблачно+22°C46 %692 мм3.0 м/с8 %
    12:00Ясно и безоблачно+27°C34 %693 мм4.1 м/с16 %
    15:00Ясно и безоблачно+29°C30 %692 мм4.5 м/с21 %
    18:00Ясно и безоблачно+31°C28 %692 мм4.8 м/с24 %
    21:00Ясно и безоблачно+27°C36 %693 мм3.0 м/с15 %
Мы используем cookies
Соглашаюсь